Time;durP1;ratioP1;P1;durP2;ratioP2;P2;SDS_P1;SDS_P2;PMS_P1;PMS_P2;Temp;Humidity;BMP_temperature;BMP_pressure;BME280_temperature;BME280_humidity;BME280_pressure;Samples;Min_cycle;Max_cycle;Signal;HPM_P1;HPM_P2
2024/03/12 00:00:23;;;;;;;55.43;35.80;;;8.60;99.90;;;;;;5015173;28;20105;-86
2024/03/12 00:02:50;;;;;;;55.30;33.83;;;8.60;99.90;;;;;;5015597;28;20101;-87
2024/03/12 00:05:19;;;;;;;58.13;35.63;;;8.60;99.90;;;;;;5015113;28;20049;-87
2024/03/12 00:07:49;;;;;;;54.87;36.37;;;8.60;99.90;;;;;;5015009;28;20097;-87
2024/03/12 00:10:19;;;;;;;59.07;36.47;;;8.60;99.90;;;;;;5014766;28;20030;-87
2024/03/12 00:12:51;;;;;;;56.70;37.00;;;8.60;99.90;;;;;;5014813;28;20114;-86
2024/03/12 00:15:22;;;;;;;55.10;34.67;;;8.70;99.90;;;;;;5014580;28;20098;-86
2024/03/12 00:17:50;;;;;;;53.90;33.90;;;8.70;99.90;;;;;;5014926;28;20021;-87
2024/03/12 00:20:17;;;;;;;60.70;36.60;;;8.70;99.90;;;;;;5014475;28;20048;-86
2024/03/12 00:22:47;;;;;;;58.77;36.20;;;8.70;99.90;;;;;;5014824;28;20032;-87
2024/03/12 00:25:21;;;;;;;54.83;35.57;;;8.70;99.90;;;;;;5014697;28;20022;-87
2024/03/12 00:27:47;;;;;;;56.37;35.30;;;8.70;99.90;;;;;;5014714;28;20026;-87
2024/03/12 00:30:14;;;;;;;64.57;36.37;;;8.70;99.90;;;;;;5029855;28;20121;-86
2024/03/12 00:32:40;;;;;;;58.83;35.97;;;8.70;99.90;;;;;;5014315;28;20030;-87
2024/03/12 00:35:10;;;;;;;63.97;37.03;;;8.70;99.90;;;;;;5013038;28;20040;-87
2024/03/12 00:37:38;;;;;;;68.10;38.70;;;8.70;99.90;;;;;;5014585;28;20028;-86
2024/03/12 00:40:05;;;;;;;68.17;36.67;;;8.70;99.90;;;;;;5013087;28;20404;-87
2024/03/12 00:42:30;;;;;;;78.23;40.37;;;8.70;99.90;;;;;;5014457;28;20037;-86
2024/03/12 00:44:56;;;;;;;72.33;42.03;;;8.70;99.90;;;;;;5014219;28;20175;-86
2024/03/12 00:47:22;;;;;;;75.17;41.63;;;8.70;99.90;;;;;;5014494;28;20017;-86
2024/03/12 00:49:50;;;;;;;75.23;42.60;;;8.70;99.90;;;;;;5014117;28;20084;-86
2024/03/12 00:52:17;;;;;;;76.47;43.37;;;8.70;99.90;;;;;;5012941;28;20495;-86
2024/03/12 00:54:45;;;;;;;79.80;40.23;;;8.70;99.90;;;;;;5014466;28;20029;-86
2024/03/12 00:57:13;;;;;;;79.80;42.63;;;8.70;99.90;;;;;;5014265;28;20088;-87
2024/03/12 00:59:40;;;;;;;78.57;42.17;;;8.60;99.90;;;;;;5007655;28;20018;-86
2024/03/12 01:02:07;;;;;;;67.57;40.23;;;8.70;99.90;;;;;;4995134;28;20018;-86
2024/03/12 01:04:33;;;;;;;76.50;40.43;;;8.70;99.90;;;;;;5009530;28;20018;-87
2024/03/12 01:06:59;;;;;;;75.53;41.37;;;8.60;99.90;;;;;;4993536;28;20488;-87
2024/03/12 01:09:27;;;;;;;77.47;43.07;;;8.70;99.90;;;;;;4994761;28;20493;-87
2024/03/12 01:11:53;;;;;;;75.57;41.97;;;8.60;99.90;;;;;;5009518;28;20030;-88
2024/03/12 01:14:21;;;;;;;68.63;38.63;;;8.60;99.90;;;;;;4994284;28;20069;-86
2024/03/12 01:16:46;;;;;;;82.50;43.67;;;8.60;99.90;;;;;;4994319;28;20478;-86
2024/03/12 01:19:12;;;;;;;78.40;42.63;;;8.60;99.90;;;;;;4994772;28;20126;-87
2024/03/12 01:21:40;;;;;;;75.63;41.10;;;8.60;99.90;;;;;;4994700;28;20018;-87
2024/03/12 01:24:06;;;;;;;70.63;41.23;;;8.50;99.90;;;;;;4995019;28;20022;-87
2024/03/12 01:26:31;;;;;;;73.50;39.07;;;8.50;99.90;;;;;;4996382;28;20022;-86
2024/03/12 01:28:57;;;;;;;75.20;40.73;;;8.50;99.90;;;;;;4994278;28;20493;-87
2024/03/12 01:31:23;;;;;;;73.83;40.47;;;8.50;99.90;;;;;;4996355;28;20030;-87
2024/03/12 01:33:49;;;;;;;75.10;40.47;;;8.40;99.90;;;;;;5009727;28;20081;-87
2024/03/12 01:36:20;;;;;;;82.13;42.20;;;8.40;99.90;;;;;;4995182;28;20045;-87
2024/03/12 01:38:54;;;;;;;83.73;41.90;;;8.40;99.90;;;;;;4994802;28;20046;-87
2024/03/12 01:41:20;;;;;;;;;;;8.40;99.90;;;;;;4994375;28;20014;-87
2024/03/12 01:43:55;;;;;;;72.10;38.50;;;8.40;99.90;;;;;;4994614;28;19916;-87
2024/03/12 01:46:22;;;;;;;77.93;41.03;;;8.40;99.90;;;;;;5009517;28;20029;-87
2024/03/12 01:48:48;;;;;;;76.97;40.13;;;8.30;99.90;;;;;;5009831;28;20030;-87
2024/03/12 01:51:16;;;;;;;85.23;41.43;;;8.30;99.90;;;;;;4994385;28;20030;-87
2024/03/12 01:53:42;;;;;;;75.23;38.60;;;8.30;99.90;;;;;;4998220;28;20019;-88
2024/03/12 01:56:08;;;;;;;87.13;41.27;;;8.30;99.90;;;;;;5014104;28;20026;-87
2024/03/12 01:58:33;;;;;;;95.23;42.10;;;8.30;99.90;;;;;;4998741;28;20142;-88
2024/03/12 02:00:59;;;;;;;87.90;44.40;;;8.30;99.90;;;;;;4999095;28;20030;-89
2024/03/12 02:03:25;;;;;;;90.93;45.17;;;8.30;99.90;;;;;;4998298;28;20049;-87
2024/03/12 02:05:50;;;;;;;84.57;41.97;;;8.30;99.90;;;;;;4998080;28;20027;-87
2024/03/12 02:08:16;;;;;;;97.00;46.37;;;8.30;99.90;;;;;;5013286;28;20058;-86
2024/03/12 02:10:43;;;;;;;84.67;42.47;;;8.20;99.90;;;;;;4997896;28;20105;-85
2024/03/12 02:13:08;;;;;;;81.80;43.57;;;8.20;99.90;;;;;;4998051;28;20037;-86
2024/03/12 02:15:34;;;;;;;84.57;42.60;;;8.20;99.90;;;;;;4997198;28;20034;-87
2024/03/12 02:18:00;;;;;;;85.37;38.80;;;8.20;99.90;;;;;;5013265;28;20101;-87
2024/03/12 02:20:26;;;;;;;83.87;42.47;;;8.20;99.90;;;;;;5012628;28;20050;-87
2024/03/12 02:22:53;;;;;;;79.13;40.70;;;8.20;99.90;;;;;;4997939;28;20054;-86
2024/03/12 02:25:19;;;;;;;75.50;38.17;;;8.20;99.90;;;;;;4997634;28;20019;-86
2024/03/12 02:27:45;;;;;;;76.37;38.67;;;8.20;99.90;;;;;;4997250;28;20393;-86
2024/03/12 02:30:11;;;;;;;74.50;40.10;;;8.20;99.90;;;;;;4995979;28;20036;-86
2024/03/12 02:32:38;;;;;;;86.43;42.73;;;8.20;99.90;;;;;;4997291;28;20109;-86
2024/03/12 02:35:05;;;;;;;74.73;40.13;;;8.20;99.90;;;;;;4997979;28;20023;-86
2024/03/12 02:37:30;;;;;;;73.63;38.93;;;8.30;99.90;;;;;;4997541;28;20105;-86
2024/03/12 02:39:56;;;;;;;75.17;38.73;;;8.20;99.90;;;;;;4997309;28;20133;-86
2024/03/12 02:42:22;;;;;;;75.20;37.00;;;8.20;99.90;;;;;;4997027;28;20130;-86
2024/03/12 02:44:47;;;;;;;70.63;38.90;;;8.30;99.90;;;;;;4997616;28;20037;-86
2024/03/12 02:47:13;;;;;;;71.00;36.67;;;8.30;99.90;;;;;;4996001;28;20549;-86
2024/03/12 02:49:39;;;;;;;76.20;39.70;;;8.30;99.90;;;;;;4997145;28;20030;-87
2024/03/12 02:52:05;;;;;;;71.43;37.60;;;8.30;99.90;;;;;;4996768;28;20025;-87
2024/03/12 02:54:31;;;;;;;73.30;38.53;;;8.30;99.90;;;;;;4996870;28;20098;-86
2024/03/12 02:56:56;;;;;;;74.03;39.73;;;8.30;99.90;;;;;;4997006;28;20085;-86
2024/03/12 02:59:27;;;;;;;62.73;37.57;;;8.30;99.90;;;;;;5003572;28;20029;-88
2024/03/12 03:01:52;;;;;;;65.37;36.13;;;8.30;99.90;;;;;;4997288;28;20109;-86
2024/03/12 03:04:21;;;;;;;67.20;34.63;;;8.30;99.90;;;;;;4997097;28;20058;-86
2024/03/12 03:06:50;;;;;;;70.90;37.40;;;8.30;99.90;;;;;;4997058;28;20031;-85
2024/03/12 03:09:16;;;;;;;70.37;38.03;;;8.30;99.90;;;;;;4995492;28;20022;-86
2024/03/12 03:11:42;;;;;;;68.07;37.83;;;8.30;99.90;;;;;;5011930;28;20022;-86
2024/03/12 03:14:08;;;;;;;72.37;39.27;;;8.30;99.90;;;;;;4996660;28;20037;-86
2024/03/12 03:16:33;;;;;;;69.30;37.40;;;8.30;99.90;;;;;;4996910;28;20030;-85
2024/03/12 03:18:59;;;;;;;71.10;37.23;;;8.30;99.90;;;;;;4995735;28;20244;-86
2024/03/12 03:21:25;;;;;;;67.70;37.77;;;8.30;99.90;;;;;;4997952;28;20030;-86
2024/03/12 03:23:51;;;;;;;64.87;35.60;;;8.20;99.90;;;;;;4997710;28;20037;-86
2024/03/12 03:26:17;;;;;;;62.77;34.83;;;8.30;99.90;;;;;;5012626;28;20024;-86
2024/03/12 03:28:43;;;;;;;60.00;33.57;;;8.30;99.90;;;;;;4996527;28;20027;-85
2024/03/12 03:31:10;;;;;;;59.73;32.90;;;8.30;99.90;;;;;;4996381;28;20022;-87
2024/03/12 03:33:38;;;;;;;53.00;30.57;;;8.30;99.90;;;;;;4995096;28;20058;-85
2024/03/12 03:36:03;;;;;;;60.87;34.33;;;8.30;99.90;;;;;;4995213;28;20490;-87
2024/03/12 03:38:29;;;;;;;52.70;30.80;;;8.30;99.90;;;;;;5011229;28;20057;-89
2024/03/12 03:40:56;;;;;;;59.57;33.07;;;8.30;99.90;;;;;;5011593;28;20502;-87
2024/03/12 03:43:21;;;;;;;53.47;31.73;;;8.30;99.90;;;;;;4996264;28;20030;-88
2024/03/12 03:45:47;;;;;;;56.10;33.07;;;8.30;99.90;;;;;;4996404;28;20072;-87
2024/03/12 03:48:13;;;;;;;61.30;33.77;;;8.30;99.90;;;;;;4996371;28;20022;-88
2024/03/12 03:50:40;;;;;;;57.73;31.97;;;8.30;99.90;;;;;;4996304;28;20023;-88
2024/03/12 03:53:08;;;;;;;51.03;30.17;;;8.20;99.90;;;;;;4994762;28;20033;-88
2024/03/12 03:55:34;;;;;;;54.57;31.33;;;8.20;99.90;;;;;;4996485;28;20474;-87
2024/03/12 03:57:59;;;;;;;54.60;29.20;;;8.20;99.90;;;;;;4996204;28;20489;-87
2024/03/12 04:00:31;;;;;;;44.10;26.97;;;8.20;99.90;;;;;;4996004;28;20026;-87
2024/03/12 04:02:57;;;;;;;47.87;29.00;;;8.20;99.90;;;;;;4996654;28;20046;-86
2024/03/12 04:05:23;;;;;;;52.90;30.43;;;8.20;99.90;;;;;;5011226;28;20394;-88
2024/03/12 04:07:49;;;;;;;51.57;28.07;;;8.20;99.90;;;;;;4995712;28;20022;-87
2024/03/12 04:10:15;;;;;;;48.70;28.83;;;8.20;99.90;;;;;;4995944;28;20026;-87
2024/03/12 04:12:45;;;;;;;45.07;26.73;;;8.20;99.90;;;;;;4995759;28;20061;-89
2024/03/12 04:15:12;;;;;;;48.30;29.13;;;8.20;99.90;;;;;;4994347;28;20030;-88
2024/03/12 04:17:39;;;;;;;45.70;25.13;;;8.20;99.90;;;;;;4994727;28;20038;-89
2024/03/12 04:20:11;;;;;;;48.63;27.70;;;8.20;99.90;;;;;;5010698;28;20073;-87
2024/03/12 04:22:37;;;;;;;45.77;27.40;;;8.20;99.90;;;;;;4995492;28;20018;-87
2024/03/12 04:25:07;;;;;;;45.43;28.60;;;8.20;99.90;;;;;;4994274;28;20102;-87
2024/03/12 04:27:36;;;;;;;48.13;26.47;;;8.20;99.90;;;;;;4996107;28;20037;-89
2024/03/12 04:30:09;;;;;;;51.90;25.57;;;8.10;99.90;;;;;;4996073;28;20046;-87
2024/03/12 04:32:35;;;;;;;48.00;26.23;;;8.10;99.90;;;;;;4995391;28;20037;-87
2024/03/12 04:35:04;;;;;;;44.17;25.53;;;8.10;99.90;;;;;;4996173;28;20524;-88
2024/03/12 04:37:32;;;;;;;43.70;25.30;;;8.10;99.90;;;;;;4996720;28;20022;-88
2024/03/12 04:39:59;;;;;;;44.07;25.37;;;8.10;99.90;;;;;;4995671;28;20014;-88
2024/03/12 04:42:27;;;;;;;42.90;25.70;;;8.10;99.90;;;;;;4995547;28;20019;-87
2024/03/12 04:44:53;;;;;;;49.37;26.90;;;8.10;99.90;;;;;;4994798;28;20057;-87
2024/03/12 04:47:20;;;;;;;51.77;26.83;;;8.10;99.90;;;;;;4994062;28;20363;-88
2024/03/12 04:49:47;;;;;;;47.63;26.67;;;8.10;99.90;;;;;;4995018;28;20042;-87
2024/03/12 04:52:12;;;;;;;58.47;29.60;;;8.10;99.90;;;;;;4996003;28;20022;-87
2024/03/12 04:54:38;;;;;;;51.23;25.87;;;8.10;99.90;;;;;;4994831;28;20027;-87
2024/03/12 04:57:04;;;;;;;46.37;26.20;;;8.10;99.90;;;;;;4994819;28;20459;-88
2024/03/12 04:59:29;;;;;;;46.93;26.53;;;8.10;99.90;;;;;;4993806;28;20023;-87
2024/03/12 05:01:55;;;;;;;51.53;26.80;;;8.10;99.90;;;;;;4994895;28;20030;-88
2024/03/12 05:04:22;;;;;;;49.57;27.27;;;8.10;99.90;;;;;;5010354;28;20026;-87
2024/03/12 05:06:47;;;;;;;49.37;26.77;;;8.10;99.90;;;;;;5010844;28;20025;-86
2024/03/12 05:09:17;;;;;;;51.40;26.43;;;8.10;99.90;;;;;;4995807;28;20022;-87
2024/03/12 05:11:44;;;;;;;54.43;26.50;;;8.10;99.90;;;;;;4995354;28;20049;-88
2024/03/12 05:14:10;;;;;;;46.47;26.20;;;8.10;99.90;;;;;;4995984;28;20453;-87
2024/03/12 05:16:35;;;;;;;44.93;23.67;;;8.10;99.90;;;;;;4995635;28;20030;-87
2024/03/12 05:19:01;;;;;;;49.90;24.63;;;8.10;99.90;;;;;;5020357;28;20515;-89
2024/03/12 05:21:27;;;;;;;46.00;23.63;;;8.10;99.90;;;;;;5014015;28;20058;-87
2024/03/12 05:23:56;;;;;;;42.60;23.10;;;8.10;99.90;;;;;;5014209;28;20554;-87
2024/03/12 05:26:29;;;;;;;41.93;22.33;;;8.10;99.90;;;;;;5013876;28;20034;-88
2024/03/12 05:28:58;;;;;;;49.70;22.97;;;8.10;99.90;;;;;;5013920;28;20022;-88
2024/03/12 05:31:32;;;;;;;41.13;21.20;;;8.10;99.90;;;;;;5013928;28;20057;-87
2024/03/12 05:34:02;;;;;;;48.20;22.90;;;8.10;99.90;;;;;;5013249;28;20085;-87
2024/03/12 05:36:40;;;;;;;37.97;21.30;;;8.10;99.90;;;;;;5014044;28;20025;-87
2024/03/12 05:39:19;;;;;;;48.43;25.27;;;8.10;99.90;;;;;;5013627;28;20029;-87
2024/03/12 05:41:49;;;;;;;42.43;22.83;;;8.10;99.90;;;;;;5014192;28;20515;-89
2024/03/12 05:49:45;;;;;;;58.75;27.30;;;8.10;99.90;;;;;;5007394;28;20029;-84
2024/03/12 05:52:11;;;;;;;56.80;27.83;;;8.10;99.90;;;;;;5028506;28;20030;-85
2024/03/12 05:54:37;;;;;;;71.70;30.80;;;8.10;99.90;;;;;;5028413;28;20462;-86
2024/03/12 05:57:03;;;;;;;63.30;30.40;;;8.10;99.90;;;;;;5028170;28;20030;-85
2024/03/12 05:59:28;;;;;;;66.17;31.23;;;8.10;99.90;;;;;;5027640;28;20030;-86
2024/03/12 06:01:54;;;;;;;69.43;30.83;;;8.00;99.90;;;;;;5012820;28;20030;-85
2024/03/12 06:04:20;;;;;;;70.17;31.77;;;8.00;99.90;;;;;;5026159;28;20026;-87
2024/03/12 06:06:46;;;;;;;74.17;30.67;;;8.00;99.90;;;;;;5011639;28;20036;-86
2024/03/12 06:09:12;;;;;;;61.67;29.53;;;8.00;99.90;;;;;;5012831;28;20034;-87
2024/03/12 06:11:39;;;;;;;77.43;30.53;;;8.00;99.90;;;;;;5012989;28;20088;-86
2024/03/12 06:14:05;;;;;;;80.13;31.60;;;8.00;99.90;;;;;;5012824;28;20038;-85
2024/03/12 06:16:32;;;;;;;62.27;30.77;;;8.00;99.90;;;;;;5027977;28;20034;-86
2024/03/12 06:18:58;;;;;;;66.17;29.87;;;7.90;99.90;;;;;;5027471;28;20030;-86
2024/03/12 06:21:24;;;;;;;69.83;29.63;;;8.00;99.90;;;;;;5013185;28;20448;-85
2024/03/12 06:23:49;;;;;;;64.67;29.20;;;7.90;99.90;;;;;;5028257;28;20389;-85
2024/03/12 06:26:15;;;;;;;67.17;31.40;;;7.90;99.90;;;;;;5012999;28;20097;-86
2024/03/12 06:28:41;;;;;;;56.90;29.40;;;7.90;99.90;;;;;;5012934;28;20153;-86
2024/03/12 06:31:08;;;;;;;66.13;29.47;;;7.90;99.90;;;;;;5012922;28;20077;-87
2024/03/12 06:33:34;;;;;;;59.30;27.17;;;7.90;99.90;;;;;;5013483;28;20022;-85
2024/03/12 06:36:00;;;;;;;67.90;30.20;;;7.90;99.90;;;;;;5028493;28;20080;-85
2024/03/12 06:38:26;;;;;;;67.43;30.07;;;7.90;99.90;;;;;;5014883;28;20022;-85
2024/03/12 06:40:52;;;;;;;62.00;29.27;;;7.80;99.90;;;;;;5017891;28;20477;-89
2024/03/12 06:43:18;;;;;;;57.73;28.20;;;7.90;99.90;;;;;;5032210;28;20025;-82
2024/03/12 06:45:44;;;;;;;65.03;29.33;;;7.90;99.90;;;;;;5031151;28;20018;-85
2024/03/12 06:48:10;;;;;;;55.03;26.93;;;7.80;99.90;;;;;;5009717;28;20026;-85
2024/03/12 06:50:36;;;;;;;63.93;27.03;;;7.80;99.90;;;;;;4999206;28;20540;-84
2024/03/12 06:53:05;;;;;;;62.47;27.70;;;7.90;99.90;;;;;;5002022;28;20026;-83
2024/03/12 06:55:30;;;;;;;60.67;25.37;;;7.80;99.90;;;;;;5016313;28;20039;-82
2024/03/12 06:58:04;;;;;;;62.63;25.40;;;7.90;99.90;;;;;;5015598;28;20026;-81
2024/03/12 07:00:37;;;;;;;59.38;26.80;;;7.90;99.90;;;;;;5016433;28;20026;-81
2024/03/12 07:03:04;;;;;;;59.20;27.77;;;7.80;99.90;;;;;;5015961;28;20030;-85
2024/03/12 07:05:33;;;;;;;51.97;25.53;;;7.90;99.90;;;;;;5015062;28;20079;-86
2024/03/12 07:08:00;;;;;;;65.90;25.70;;;7.90;99.90;;;;;;5015896;28;20054;-83
2024/03/12 07:10:26;;;;;;;61.53;26.13;;;7.90;99.90;;;;;;5015986;28;20068;-85
2024/03/12 07:12:54;;;;;;;56.83;25.70;;;7.90;99.90;;;;;;5031387;28;20515;-85
2024/03/12 07:15:19;;;;;;;53.10;24.80;;;7.90;99.90;;;;;;5015771;28;20026;-85
2024/03/12 07:17:45;;;;;;;52.53;24.00;;;7.90;99.90;;;;;;5031549;28;20029;-82
2024/03/12 07:20:15;;;;;;;60.60;24.67;;;7.90;99.90;;;;;;5015066;28;20054;-84
2024/03/12 07:22:42;;;;;;;50.73;24.93;;;7.90;99.90;;;;;;5031172;28;20054;-85
2024/03/12 07:25:10;;;;;;;48.80;23.00;;;7.90;99.90;;;;;;5014286;28;20032;-84
2024/03/12 07:27:38;;;;;;;53.70;24.97;;;8.00;99.90;;;;;;5015493;28;20049;-86
2024/03/12 07:30:07;;;;;;;45.37;22.47;;;8.00;99.90;;;;;;5015266;28;20027;-85
2024/03/12 07:32:33;;;;;;;52.93;24.03;;;8.00;99.90;;;;;;5015313;28;20033;-85
2024/03/12 07:35:00;;;;;;;53.83;24.40;;;8.00;99.90;;;;;;5015774;28;20033;-84
2024/03/12 07:37:26;;;;;;;47.77;23.27;;;8.00;99.90;;;;;;5015341;28;20461;-85
2024/03/12 07:39:52;;;;;;;54.40;24.30;;;8.00;99.90;;;;;;5015591;28;20057;-84
2024/03/12 07:42:20;;;;;;;51.67;22.50;;;8.00;99.90;;;;;;5030422;28;20029;-85
2024/03/12 07:44:49;;;;;;;45.60;22.10;;;8.10;99.90;;;;;;5015142;28;20026;-84
2024/03/12 07:47:15;;;;;;;49.10;24.13;;;8.10;99.90;;;;;;5015216;28;20105;-85
2024/03/12 07:49:41;;;;;;;43.87;22.67;;;8.10;99.90;;;;;;5012648;28;20026;-82
2024/03/12 07:52:11;;;;;;;51.17;23.90;;;8.10;99.90;;;;;;5014522;28;20033;-82
2024/03/12 07:54:37;;;;;;;52.87;25.17;;;8.10;99.90;;;;;;5015811;28;20029;-83
2024/03/12 07:57:04;;;;;;;49.63;22.73;;;8.00;99.90;;;;;;5014950;28;20061;-85
2024/03/12 07:59:31;;;;;;;55.10;24.27;;;8.00;99.90;;;;;;5014833;28;20036;-84
2024/03/12 08:01:58;;;;;;;48.33;22.77;;;8.00;99.90;;;;;;5015048;28;20037;-84
2024/03/12 08:04:27;;;;;;;45.90;20.60;;;8.00;99.90;;;;;;5014976;28;20036;-85
2024/03/12 08:06:53;;;;;;;55.37;23.80;;;8.00;99.90;;;;;;5014844;28;20029;-85
2024/03/12 08:09:19;;;;;;;45.30;21.57;;;8.00;99.90;;;;;;5029759;28;20144;-85
2024/03/12 08:11:48;;;;;;;50.63;22.13;;;8.00;99.90;;;;;;5029791;28;20018;-85
2024/03/12 08:14:14;;;;;;;47.77;23.43;;;8.00;99.90;;;;;;5014276;28;20038;-85
2024/03/12 08:16:41;;;;;;;42.80;21.17;;;8.10;99.90;;;;;;5013273;28;20030;-85
2024/03/12 08:19:07;;;;;;;44.13;20.23;;;8.10;99.90;;;;;;5014278;28;20033;-84
2024/03/12 08:21:33;;;;;;;48.43;22.47;;;8.10;99.90;;;;;;5014613;28;20034;-85
2024/03/12 08:23:59;;;;;;;48.00;21.57;;;8.20;99.90;;;;;;5029872;28;20492;-84
2024/03/12 08:26:30;;;;;;;51.37;22.60;;;8.20;99.90;;;;;;5013240;28;20022;-85
2024/03/12 08:28:57;;;;;;;44.40;22.07;;;8.30;99.90;;;;;;5014460;28;20564;-84
2024/03/12 08:31:23;;;;;;;52.07;22.10;;;8.30;99.90;;;;;;5029367;28;20018;-85
2024/03/12 08:33:50;;;;;;;53.33;23.10;;;8.30;99.90;;;;;;5014211;28;20095;-84
2024/03/12 08:36:16;;;;;;;47.23;23.40;;;8.30;99.90;;;;;;5014461;28;20034;-84
2024/03/12 08:38:42;;;;;;;53.17;22.63;;;8.30;99.90;;;;;;5007667;28;20030;-84
2024/03/12 08:41:10;;;;;;;45.23;21.73;;;8.40;99.90;;;;;;5001067;28;20473;-84
2024/03/12 08:43:37;;;;;;;48.10;21.13;;;8.40;99.90;;;;;;4994880;28;20073;-83
2024/03/12 08:46:06;;;;;;;42.40;21.67;;;8.40;99.90;;;;;;4994576;28;20037;-84
2024/03/12 08:48:33;;;;;;;40.57;22.30;;;8.40;99.90;;;;;;4994641;28;20034;-81
2024/03/12 08:51:05;;;;;;;50.73;22.07;;;8.40;99.90;;;;;;4994411;28;20026;-83
2024/03/12 08:53:33;;;;;;;47.87;24.53;;;8.40;99.90;;;;;;4994460;28;20091;-82
2024/03/12 08:56:03;;;;;;;45.73;23.00;;;8.40;99.90;;;;;;5011188;28;20019;-85
2024/03/12 08:58:29;;;;;;;44.43;22.60;;;8.40;99.90;;;;;;4994395;28;20101;-84
2024/03/12 09:00:55;;;;;;;46.43;22.23;;;8.40;99.90;;;;;;4994152;28;20122;-84
2024/03/12 09:03:21;;;;;;;45.03;22.70;;;8.50;99.90;;;;;;5009981;28;20026;-84
2024/03/12 09:05:47;;;;;;;37.93;20.77;;;8.60;99.90;;;;;;4994726;28;20425;-82
2024/03/12 09:08:13;;;;;;;45.13;22.03;;;8.60;99.90;;;;;;5008819;28;20084;-85
2024/03/12 09:10:39;;;;;;;43.50;23.23;;;8.60;99.90;;;;;;4993805;28;20446;-83
2024/03/12 09:13:05;;;;;;;41.57;21.53;;;8.60;99.90;;;;;;4993905;28;20054;-84
2024/03/12 09:15:35;;;;;;;37.90;21.60;;;8.60;99.90;;;;;;4993903;28;20034;-83
2024/03/12 09:18:07;;;;;;;39.17;21.80;;;8.60;99.90;;;;;;4994048;28;20018;-85
2024/03/12 09:20:36;;;;;;;36.70;19.33;;;8.60;99.90;;;;;;4992399;28;20050;-85
2024/03/12 09:23:03;;;;;;;36.40;20.30;;;8.60;99.90;;;;;;4993926;28;20397;-78
2024/03/12 09:25:30;;;;;;;38.90;21.00;;;8.60;99.90;;;;;;4992560;28;20042;-79
2024/03/12 09:27:55;;;;;;;34.10;18.43;;;8.50;99.90;;;;;;4993872;28;20031;-79
2024/03/12 09:30:23;;;;;;;35.97;18.10;;;8.60;99.90;;;;;;4993612;28;20118;-79
2024/03/12 09:32:50;;;;;;;34.40;18.00;;;8.50;99.90;;;;;;4993235;28;20034;-78
2024/03/12 09:35:18;;;;;;;33.70;16.90;;;8.50;99.90;;;;;;4993991;28;20023;-79
2024/03/12 09:37:45;;;;;;;32.90;17.97;;;8.50;99.90;;;;;;4993803;28;20019;-79
2024/03/12 09:40:13;;;;;;;33.27;17.77;;;8.60;99.90;;;;;;4993528;28;20486;-79
2024/03/12 09:42:45;;;;;;;33.63;17.67;;;8.60;99.90;;;;;;5008665;28;20027;-79
2024/03/12 09:45:11;;;;;;;35.57;14.87;;;8.60;99.90;;;;;;4993084;28;20029;-79
2024/03/12 09:47:37;;;;;;;30.30;16.93;;;8.60;99.90;;;;;;4993605;28;20015;-79
2024/03/12 09:50:10;;;;;;;31.90;15.80;;;8.60;99.90;;;;;;4993479;28;20026;-80
2024/03/12 09:52:39;;;;;;;29.33;16.30;;;8.60;99.90;;;;;;4993482;28;20023;-79
2024/03/12 09:55:13;;;;;;;30.83;16.70;;;8.70;99.90;;;;;;4993815;28;20035;-79
2024/03/12 09:57:44;;;;;;;32.22;17.92;;;8.70;99.90;;;;;;4993150;28;20033;-79
2024/03/12 10:00:24;;;;;;;38.37;18.10;;;8.70;99.90;;;;;;4992009;28;20109;-79
2024/03/12 10:02:50;;;;;;;36.27;17.37;;;8.70;99.90;;;;;;4995443;28;20037;-79
2024/03/12 10:05:23;;;;;;;31.20;15.63;;;8.70;99.90;;;;;;5002374;28;20110;-79
2024/03/12 10:08:07;;;;;;;32.67;18.73;;;8.70;99.90;;;;;;4993567;28;20015;-79
2024/03/12 10:10:38;;;;;;;34.42;16.88;;;8.80;99.90;;;;;;4993038;28;20023;-79
2024/03/12 10:13:17;;;;;;;32.03;17.47;;;8.80;99.90;;;;;;4994299;28;20106;-79
2024/03/12 10:15:59;;;;;;;34.87;19.33;;;8.80;99.90;;;;;;4997350;28;20027;-79
2024/03/12 10:18:26;;;;;;;35.23;18.07;;;8.80;99.90;;;;;;4995969;28;20437;-79
2024/03/12 10:20:57;;;;;;;32.30;17.97;;;8.90;99.90;;;;;;4995827;28;20038;-79
2024/03/12 10:23:25;;;;;;;34.00;18.27;;;9.00;99.90;;;;;;4996967;28;20869;-79
2024/03/12 10:26:11;;;;;;;32.70;19.30;;;9.10;99.90;;;;;;4996834;28;20030;-79
2024/03/12 10:28:40;;;;;;;30.73;17.57;;;9.10;99.90;;;;;;4995585;28;20485;-79
2024/03/12 10:31:11;;;;;;;38.63;18.97;;;9.20;99.90;;;;;;4996491;28;20049;-79
2024/03/12 10:33:48;;;;;;;30.77;18.27;;;9.30;99.90;;;;;;4996927;28;20109;-79
2024/03/12 10:36:28;;;;;;;30.20;18.63;;;9.30;99.90;;;;;;4996893;28;20026;-79
2024/03/12 10:38:54;;;;;;;34.40;18.40;;;9.30;99.90;;;;;;5011784;28;20027;-80
2024/03/12 10:41:21;;;;;;;35.83;18.87;;;9.30;99.90;;;;;;4995660;28;20021;-79
2024/03/12 10:43:54;;;;;;;34.17;18.90;;;9.30;99.90;;;;;;4995562;28;20023;-80
2024/03/12 10:46:21;;;;;;;31.27;18.38;;;9.40;99.90;;;;;;4996923;28;20014;-80
2024/03/12 10:48:50;;;;;;;31.50;17.97;;;9.40;99.90;;;;;;4996368;28;20548;-80
2024/03/12 10:51:17;;;;;;;33.27;18.73;;;9.40;99.90;;;;;;4996477;28;20022;-79
2024/03/12 10:53:46;;;;;;;35.70;18.60;;;9.50;99.90;;;;;;4996348;28;20034;-80
2024/03/12 10:56:12;;;;;;;31.27;17.37;;;9.50;99.90;;;;;;4995101;28;20061;-80
2024/03/12 10:58:38;;;;;;;34.77;17.87;;;9.60;99.90;;;;;;4996133;28;20474;-80
2024/03/12 11:01:09;;;;;;;31.30;18.07;;;9.60;99.90;;;;;;4994968;28;20466;-80
2024/03/12 11:03:35;;;;;;;37.30;18.80;;;9.60;99.90;;;;;;4994956;28;20030;-80
2024/03/12 11:06:02;;;;;;;30.67;17.13;;;9.70;99.90;;;;;;4996209;28;20041;-81
2024/03/12 11:08:29;;;;;;;35.57;19.07;;;9.70;99.90;;;;;;4994477;28;20030;-80
2024/03/12 11:10:56;;;;;;;30.37;17.80;;;9.80;99.90;;;;;;4995043;28;20029;-80
2024/03/12 11:13:23;;;;;;;31.00;18.60;;;9.80;99.90;;;;;;4996298;28;20033;-78
2024/03/12 11:15:49;;;;;;;33.70;19.57;;;9.90;99.90;;;;;;5011396;28;20401;-79
2024/03/12 11:18:34;;;;;;;37.58;18.70;;;9.90;99.90;;;;;;4995839;28;20178;-79
2024/03/12 11:20:59;;;;;;;33.57;19.10;;;10.00;99.90;;;;;;4996021;28;20455;-79
2024/03/12 11:23:28;;;;;;;34.65;19.52;;;10.00;99.90;;;;;;4994619;28;20057;-79
2024/03/12 11:25:57;;;;;;;32.00;18.85;;;10.10;99.90;;;;;;4994821;28;20022;-80
2024/03/12 11:28:24;;;;;;;31.60;18.63;;;10.10;99.90;;;;;;4996331;28;20026;-79
2024/03/12 11:31:03;;;;;;;31.13;19.33;;;10.20;99.90;;;;;;4995723;28;20060;-79
2024/03/12 11:33:41;;;;;;;32.13;18.58;;;10.20;99.90;;;;;;4995569;28;20061;-79
2024/03/12 11:36:10;;;;;;;31.95;18.58;;;10.20;99.90;;;;;;4995500;28;20030;-79
2024/03/12 11:38:37;;;;;;;31.60;19.50;;;10.10;99.90;;;;;;5010831;28;20026;-80
2024/03/12 11:41:03;;;;;;;30.50;19.45;;;10.10;99.90;;;;;;4995444;28;20026;-80
2024/03/12 11:43:39;;;;;;;31.25;19.55;;;10.10;99.90;;;;;;4995622;28;20026;-80
2024/03/12 11:46:07;;;;;;;33.47;18.52;;;10.10;99.90;;;;;;4995367;28;20061;-80
2024/03/12 11:48:37;;;;;;;34.90;20.23;;;10.10;99.90;;;;;;4995452;28;20026;-79
2024/03/12 11:51:04;;;;;;;32.20;18.60;;;10.10;99.90;;;;;;4995435;28;20023;-80
2024/03/12 11:53:35;;;;;;;31.13;18.40;;;10.10;99.90;;;;;;4993804;28;20121;-79
2024/03/12 11:56:06;;;;;;;31.30;17.90;;;10.10;99.90;;;;;;4995278;28;20023;-79
2024/03/12 11:58:38;;;;;;;31.53;19.03;;;10.20;99.90;;;;;;4995231;28;20377;-79
2024/03/12 12:01:09;;;;;;;30.20;17.45;;;10.20;99.90;;;;;;4994183;28;20081;-78
2024/03/12 12:03:35;;;;;;;38.43;19.67;;;10.30;99.90;;;;;;4995028;28;20057;-79
2024/03/12 12:06:01;;;;;;;34.55;18.90;;;10.40;99.90;;;;;;4994859;28;20050;-79
2024/03/12 12:08:27;;;;;;;30.42;18.38;;;10.50;99.90;;;;;;4993589;28;20034;-79
2024/03/12 12:10:57;;;;;;;30.60;17.80;;;10.70;99.90;;;;;;4993808;28;20486;-79
2024/03/12 12:13:23;;;;;;;31.40;19.02;;;11.10;99.90;;;;;;5010244;28;20022;-79
2024/03/12 12:16:05;;;;;;;29.77;18.27;;;11.60;99.90;;;;;;4993849;28;20022;-80
2024/03/12 12:18:35;;;;;;;31.02;18.38;;;12.00;99.90;;;;;;4994765;28;20018;-79
2024/03/12 12:21:08;;;;;;;30.35;18.13;;;12.20;99.90;;;;;;4994640;28;20062;-79
2024/03/12 12:23:36;;;;;;;30.88;18.58;;;12.20;99.90;;;;;;5009809;28;20026;-79
2024/03/12 12:26:05;;;;;;;35.15;19.58;;;12.20;99.90;;;;;;4993510;28;20049;-79
2024/03/12 12:28:32;;;;;;;29.98;18.88;;;12.10;99.30;;;;;;4994658;28;20046;-79
2024/03/12 12:31:02;;;;;;;29.98;18.58;;;12.10;98.30;;;;;;4994439;28;20025;-80
2024/03/12 12:33:30;;;;;;;30.38;18.83;;;12.10;98.40;;;;;;4994823;28;20093;-80
2024/03/12 12:36:00;;;;;;;28.13;17.42;;;12.10;97.40;;;;;;4992529;28;20065;-79
2024/03/12 12:38:27;;;;;;;29.88;18.20;;;12.20;97.60;;;;;;4994645;28;20427;-80
2024/03/12 12:40:55;;;;;;;28.02;18.33;;;12.10;97.00;;;;;;4993627;28;20478;-80
2024/03/12 12:43:21;;;;;;;30.83;17.48;;;12.10;95.90;;;;;;4994775;28;20034;-79